Hope, Rhode Island
Current Conditions -  °F | °C
As of 8:51 PM on Monday 24 Nov 2014 (Local Time) from KPVD Reporting Station
Clear Clear  
Wind Chill: 61°   Ceiling: Unl
Heat Index: 61°   Visibility: 10mi
Dew Point: 56°   Wind: 13mph
Humidity: 83%   Direction: 230°SW
Pressure: 29.71"   Gusts: 24mph
Location:  41.73°N, 71.56°W
Report Text: KPVD 250151Z 23011G21KT 10SM CLR 16/13 A2971 RMK AO2 SLP059 T01610133
Loading
Personal Weather Stations






























Interactive Weather Map New forecast layout! Learn more

10-Day Weather Forecast

Advertisements
Track Severe Weather on mobile